Time;durP1;ratioP1;P1;durP2;ratioP2;P2;SDS_P1;SDS_P2;PMS_P1;PMS_P2;Temp;Humidity;BMP_temperature;BMP_pressure;BME280_temperature;BME280_humidity;BME280_pressure;Samples;Min_cycle;Max_cycle;Signal;HPM_P1;HPM_P2
2022/01/27 08:39:50;;;;;;;6.07;5.47;;;;;;;;;;7373141;19;132442;-16
2022/01/27 08:42:24;;;;;;;6.05;5.45;;;;;;;;;;7372950;19;153546;-14
2022/01/27 08:44:55;;;;;;;5.80;5.20;;;;;;;;;;7369427;19;162022;-13
2022/01/27 08:47:27;;;;;;;6.25;5.35;;;;;;;;;;7364697;19;162393;-14
2022/01/27 08:49:58;;;;;;;8.45;5.10;;;;;;;;;;7365921;19;153857;-14
2022/01/27 08:52:29;;;;;;;5.90;5.25;;;;;;;;;;7366321;19;153496;-15
2022/01/27 08:55:04;;;;;;;7.20;5.00;;;;;;;;;;7366785;19;161699;-13
2022/01/27 08:57:36;;;;;;;5.47;4.97;;;;;;;;;;7366858;19;162648;-15
2022/01/27 09:00:09;;;;;;;5.45;4.95;;;;;;;;;;7363918;19;154141;-13
2022/01/27 09:02:40;;;;;;;7.82;5.30;;;;;;;;;;7367717;19;153570;-15
2022/01/27 09:05:12;;;;;;;5.40;4.70;;;;;;;;;;7362768;19;162027;-14
2022/01/27 09:07:43;;;;;;;6.80;4.68;;;;;;;;;;7362692;19;162363;-14
2022/01/27 09:10:18;;;;;;;6.55;5.28;;;;;;;;;;7367729;19;153968;-14
2022/01/27 09:12:49;;;;;;;5.47;4.93;;;;;;;;;;7362819;19;153532;-16
2022/01/27 09:15:20;;;;;;;5.13;4.63;;;;;;;;;;7363169;19;161953;-15
2022/01/27 09:17:52;;;;;;;5.32;4.82;;;;;;;;;;7362710;19;162341;-14
2022/01/27 09:20:23;;;;;;;5.97;4.97;;;;;;;;;;7363314;19;153930;-15
2022/01/27 09:22:57;;;;;;;7.53;5.25;;;;;;;;;;7363014;19;153530;-14
2022/01/27 09:25:41;;;;;;;6.20;5.60;;;;;;;;;;7366943;19;161813;-15
2022/01/27 09:28:13;;;;;;;4.55;4.15;;;;;;;;;;7361399;19;162393;-15
2022/01/27 09:30:46;;;;;;;4.95;4.55;;;;;;;;;;7306268;19;154174;-14
2022/01/27 09:33:35;;;;;;;4.91;4.38;;;;;;;;;;1535157;19;10146020;-15
2022/01/27 09:36:11;;;;;;;5.45;4.78;;;;;;;;;;5606810;19;10155365;-15
2022/01/27 09:38:42;;;;;;;5.35;4.85;;;;;;;;;;7357364;19;162542;-15
2022/01/27 09:41:49;;;;;;;6.65;4.55;;;;;;;;;;4353389;19;10136569;-14
2022/01/27 09:44:28;;;;;;;4.80;4.40;;;;;;;;;;1975714;19;10163742;-15
2022/01/27 09:47:01;;;;;;;4.75;4.35;;;;;;;;;;7332616;19;153502;-15
2022/01/27 09:49:37;;;;;;;5.10;4.63;;;;;;;;;;7331143;19;161808;-15
2022/01/27 09:52:08;;;;;;;5.45;4.72;;;;;;;;;;7224395;19;162318;-14
2022/01/27 09:54:40;;;;;;;5.60;4.60;;;;;;;;;;7336293;19;154028;-14
2022/01/27 09:57:17;;;;;;;4.88;4.47;;;;;;;;;;7333159;19;153532;-15
2022/01/27 09:59:49;;;;;;;5.47;4.97;;;;;;;;;;7332876;19;161772;-14
2022/01/27 10:02:26;;;;;;;5.00;4.45;;;;;;;;;;7332600;19;162443;-14
2022/01/27 10:05:01;;;;;;;5.28;4.88;;;;;;;;;;7333219;19;153991;-15
2022/01/27 10:07:42;;;;;;;5.07;4.68;;;;;;;;;;7333010;19;153577;-14
2022/01/27 10:10:16;;;;;;;5.32;4.80;;;;;;;;;;7334406;19;161783;-14
2022/01/27 10:12:54;;;;;;;4.93;4.47;;;;;;;;;;7331435;19;162677;-15
2022/01/27 10:15:26;;;;;;;7.13;4.55;;;;;;;;;;7332864;19;154141;-15
2022/01/27 10:18:09;;;;;;;5.38;4.70;;;;;;;;;;7332577;19;153573;-26
2022/01/27 10:20:43;;;;;;;6.63;4.65;;;;;;;;;;7332391;19;161750;-15
2022/01/27 10:23:18;;;;;;;4.95;4.43;;;;;;;;;;7332149;19;162368;-15
2022/01/27 10:25:54;;;;;;;4.85;4.38;;;;;;;;;;7332526;19;153954;-16
2022/01/27 10:28:43;;;;;;;4.97;4.57;;;;;;;;;;7331936;19;153810;-15
2022/01/27 10:31:19;;;;;;;4.80;4.13;;;;;;;;;;7332016;19;161898;-15
2022/01/27 10:33:53;;;;;;;5.05;4.65;;;;;;;;;;7335652;19;162578;-16
2022/01/27 10:36:27;;;;;;;5.13;4.63;;;;;;;;;;7332220;19;153873;-15
2022/01/27 10:39:00;;;;;;;5.03;4.50;;;;;;;;;;7330482;19;153608;-16
2022/01/27 10:41:34;;;;;;;4.35;4.05;;;;;;;;;;7331745;19;161941;-15
2022/01/27 10:44:14;;;;;;;5.25;4.72;;;;;;;;;;7331500;19;162777;-18
2022/01/27 10:47:05;;;;;;;5.93;4.63;;;;;;;;;;7331800;19;154051;-15
2022/01/27 10:49:43;;;;;;;5.40;4.53;;;;;;;;;;7329276;19;153503;-15
2022/01/27 10:52:15;;;;;;;4.35;3.95;;;;;;;;;;7328812;19;161982;-14
2022/01/27 10:54:57;;;;;;;5.20;4.72;;;;;;;;;;7334370;19;162629;-14
2022/01/27 10:57:32;;;;;;;8.15;4.20;;;;;;;;;;7331869;19;154012;-16
2022/01/27 11:00:14;;;;;;;5.20;4.00;;;;;;;;;;7330275;19;153582;-16
2022/01/27 11:02:53;;;;;;;5.05;4.55;;;;;;;;;;7331082;19;161812;-15
2022/01/27 11:05:26;;;;;;;4.07;3.72;;;;;;;;;;7330870;19;162626;-15
2022/01/27 11:07:58;;;;;;;4.45;4.05;;;;;;;;;;7331218;19;154113;-16
2022/01/27 11:10:30;;;;;;;4.43;4.03;;;;;;;;;;7333549;19;153615;-15
2022/01/27 11:13:02;;;;;;;4.20;3.80;;;;;;;;;;7331235;19;161922;-15
2022/01/27 11:15:37;;;;;;;4.65;4.18;;;;;;;;;;7333368;19;162487;-15
2022/01/27 11:18:09;;;;;;;4.30;3.90;;;;;;;;;;7330853;19;153911;-14
2022/01/27 11:20:51;;;;;;;4.30;3.60;;;;;;;;;;7330924;19;153582;-13
2022/01/27 11:23:47;;;;;;;4.00;3.47;;;;;;;;;;7330882;19;161888;-15
2022/01/27 11:26:24;;;;;;;5.53;4.00;;;;;;;;;;7330769;19;163059;-14
2022/01/27 11:28:56;;;;;;;4.68;3.58;;;;;;;;;;7330092;19;153981;-15
2022/01/27 11:31:57;;;;;;;4.35;3.95;;;;;;;;;;7330893;19;153680;-14
2022/01/27 11:34:46;;;;;;;4.25;3.90;;;;;;;;;;7329345;19;162207;-15
2022/01/27 11:37:18;;;;;;;3.80;3.42;;;;;;;;;;7332056;19;162751;-14
2022/01/27 11:39:52;;;;;;;3.90;3.60;;;;;;;;;;7333281;19;153967;-15
2022/01/27 11:42:55;;;;;;;4.15;3.78;;;;;;;;;;7329975;19;153536;-14
2022/01/27 11:45:28;;;;;;;3.95;3.42;;;;;;;;;;7331878;19;161975;-16
2022/01/27 11:48:07;;;;;;;7.17;3.77;;;;;;;;;;7333491;19;162391;-15
2022/01/27 11:50:52;;;;;;;3.95;3.55;;;;;;;;;;7328371;19;153894;-15
2022/01/27 11:53:39;;;;;;;3.45;3.15;;;;;;;;;;7330467;19;153526;-15
2022/01/27 11:56:15;;;;;;;3.88;3.40;;;;;;;;;;7331820;19;162484;-16
2022/01/27 11:58:49;;;;;;;3.83;3.00;;;;;;;;;;7329614;19;162398;-16
2022/01/27 12:01:23;;;;;;;4.05;3.25;;;;;;;;;;7330065;19;153852;-15
2022/01/27 12:04:16;;;;;;;3.63;3.33;;;;;;;;;;7328616;19;153691;-15
2022/01/27 12:07:09;;;;;;;4.85;3.92;;;;;;;;;;7329367;19;162154;-16
2022/01/27 12:09:41;;;;;;;3.85;3.40;;;;;;;;;;7331478;19;162680;-14
2022/01/27 12:12:33;;;;;;;4.03;3.53;;;;;;;;;;7329492;19;154300;-15
2022/01/27 12:15:10;;;;;;;4.07;3.63;;;;;;;;;;7329411;19;153561;-14
2022/01/27 12:17:42;;;;;;;3.50;3.15;;;;;;;;;;7328870;19;162032;-14
2022/01/27 12:20:18;;;;;;;3.70;3.22;;;;;;;;;;7327384;19;162649;-13
2022/01/27 12:23:08;;;;;;;3.85;3.10;;;;;;;;;;7327882;19;154067;-14
2022/01/27 12:25:48;;;;;;;3.97;3.20;;;;;;;;;;7333599;19;153585;-13
2022/01/27 12:28:20;;;;;;;4.22;3.42;;;;;;;;;;7328493;19;161768;-15
2022/01/27 12:31:02;;;;;;;3.72;2.95;;;;;;;;;;7326984;19;162489;-14
2022/01/27 12:33:33;;;;;;;3.97;3.60;;;;;;;;;;7331327;19;154612;-15
2022/01/27 12:36:07;;;;;;;3.50;3.20;;;;;;;;;;7328684;19;153597;-14
2022/01/27 12:38:43;;;;;;;3.58;3.28;;;;;;;;;;7327229;19;161970;-15
2022/01/27 12:41:14;;;;;;;3.55;3.25;;;;;;;;;;7328193;19;162405;-14
2022/01/27 12:43:46;;;;;;;3.10;2.90;;;;;;;;;;7328719;19;154116;-14
2022/01/27 12:46:17;;;;;;;3.22;2.80;;;;;;;;;;7328819;19;153534;-14
2022/01/27 12:48:50;;;;;;;3.10;2.90;;;;;;;;;;7331904;19;161790;-14
2022/01/27 12:51:56;;;;;;;2.50;2.30;;;;;;;;;;7325156;19;162410;-14
2022/01/27 12:54:31;;;;;;;4.03;3.53;;;;;;;;;;7328416;19;154325;-14
2022/01/27 12:57:02;;;;;;;3.75;3.45;;;;;;;;;;7328849;19;153839;-14
2022/01/27 12:59:35;;;;;;;4.38;4.00;;;;;;;;;;7331906;19;161868;-12
2022/01/27 13:02:09;;;;;;;3.97;3.67;;;;;;;;;;7327654;19;162515;-15
2022/01/27 13:04:42;;;;;;;4.10;3.80;;;;;;;;;;7331629;19;153930;-14
2022/01/27 13:07:16;;;;;;;8.50;4.13;;;;;;;;;;7327450;19;153595;-14
2022/01/27 13:09:54;;;;;;;3.72;3.42;;;;;;;;;;7326936;19;161776;-15
2022/01/27 13:12:31;;;;;;;4.30;3.65;;;;;;;;;;7324780;19;162731;-14
2022/01/27 13:15:07;;;;;;;3.45;3.10;;;;;;;;;;7330947;19;154036;-14
2022/01/27 13:17:46;;;;;;;3.92;3.20;;;;;;;;;;7334302;19;153582;-16
2022/01/27 13:20:24;;;;;;;4.90;3.47;;;;;;;;;;7334128;19;161852;-17
2022/01/27 13:23:05;;;;;;;4.10;3.70;;;;;;;;;;7333879;19;162559;-15
2022/01/27 13:25:42;;;;;;;3.78;3.47;;;;;;;;;;7334013;19;154389;-14
2022/01/27 13:28:19;;;;;;;3.90;3.38;;;;;;;;;;7333983;19;153646;-16
2022/01/27 13:30:52;;;;;;;3.75;3.45;;;;;;;;;;7332900;19;161803;-14
2022/01/27 13:33:25;;;;;;;3.58;3.30;;;;;;;;;;7333866;19;162557;-15
2022/01/27 13:35:58;;;;;;;;;;;;;;;;;;7334576;19;154002;-15
2022/01/27 13:38:38;;;;;;;3.05;2.85;;;;;;;;;;7332597;19;153655;-16
2022/01/27 13:41:22;;;;;;;2.75;2.55;;;;;;;;;;7333340;19;161913;-15
2022/01/27 13:43:54;;;;;;;3.78;3.47;;;;;;;;;;7332255;19;162343;-15
2022/01/27 13:46:43;;;;;;;3.38;3.08;;;;;;;;;;7330922;19;153941;-15
2022/01/27 13:49:18;;;;;;;3.40;3.03;;;;;;;;;;7336293;19;153692;-16
2022/01/27 13:51:53;;;;;;;3.40;3.10;;;;;;;;;;7335721;19;161838;-15
2022/01/27 13:54:38;;;;;;;3.60;3.30;;;;;;;;;;7333072;19;162652;-16
2022/01/27 13:57:11;;;;;;;4.30;3.10;;;;;;;;;;7333195;19;154051;-16
2022/01/27 13:59:51;;;;;;;3.75;3.20;;;;;;;;;;7331992;19;153691;-16
2022/01/27 14:02:24;;;;;;;4.03;3.33;;;;;;;;;;7334677;19;161850;-15
2022/01/27 14:04:57;;;;;;;6.18;3.38;;;;;;;;;;7336461;19;162405;-15
2022/01/27 14:07:30;;;;;;;4.25;3.33;;;;;;;;;;7332383;19;154023;-15
2022/01/27 14:10:14;;;;;;;4.45;3.20;;;;;;;;;;7332797;19;153515;-15
2022/01/27 14:12:58;;;;;;;6.50;3.67;;;;;;;;;;7332828;19;161984;-15
2022/01/27 14:15:36;;;;;;;4.97;3.00;;;;;;;;;;7326207;19;162614;-16
2022/01/27 14:18:10;;;;;;;3.63;2.88;;;;;;;;;;7333728;19;153971;-14
2022/01/27 14:20:54;;;;;;;4.07;3.05;;;;;;;;;;7335118;19;153549;-15
2022/01/27 14:23:43;;;;;;;3.45;3.10;;;;;;;;;;7330615;19;161880;-14
2022/01/27 14:26:26;;;;;;;6.18;3.15;;;;;;;;;;7331799;19;162450;-14
2022/01/27 14:28:59;;;;;;;3.67;2.97;;;;;;;;;;7333587;19;154040;-14
2022/01/27 14:31:30;;;;;;;3.22;2.65;;;;;;;;;;7334646;19;154093;-14
2022/01/27 14:34:01;;;;;;;5.55;3.03;;;;;;;;;;7335113;19;161794;-15
2022/01/27 14:36:34;;;;;;;4.68;3.08;;;;;;;;;;7333631;19;162729;-13
2022/01/27 14:39:06;;;;;;;4.70;2.97;;;;;;;;;;7329815;19;154105;-15
2022/01/27 14:41:41;;;;;;;5.97;2.60;;;;;;;;;;7336401;19;153704;-14
2022/01/27 14:44:12;;;;;;;4.07;3.15;;;;;;;;;;7333460;19;162000;-13
2022/01/27 14:46:47;;;;;;;4.15;2.83;;;;;;;;;;7332375;19;162640;-15
2022/01/27 14:49:18;;;;;;;3.53;3.22;;;;;;;;;;7330170;19;153985;-14
2022/01/27 14:51:51;;;;;;;3.85;2.85;;;;;;;;;;7331313;19;153541;-14
2022/01/27 14:54:22;;;;;;;4.88;2.83;;;;;;;;;;7330241;19;161926;-15
2022/01/27 14:56:57;;;;;;;3.95;3.15;;;;;;;;;;7331400;19;162578;-14
2022/01/27 14:59:29;;;;;;;3.30;2.92;;;;;;;;;;7331627;19;153943;-14
2022/01/27 15:02:00;;;;;;;3.88;2.92;;;;;;;;;;7330541;19;153606;-14
2022/01/27 15:04:34;;;;;;;7.65;3.15;;;;;;;;;;7331423;19;161971;-14
2022/01/27 15:07:06;;;;;;;4.68;2.80;;;;;;;;;;7331143;19;162631;-14
2022/01/27 15:09:38;;;;;;;2.77;2.53;;;;;;;;;;7330390;19;154288;-15
2022/01/27 15:12:15;;;;;;;3.78;2.85;;;;;;;;;;7329121;19;153864;-17
2022/01/27 15:20:17;;;;;;;2.72;2.53;;;;;;;;;;7329707;19;154074;-14
2022/01/27 15:22:49;;;;;;;3.20;2.90;;;;;;;;;;7331335;19;153575;-15
2022/01/27 15:25:23;;;;;;;4.85;2.85;;;;;;;;;;7330576;19;161910;-14
2022/01/27 15:27:57;;;;;;;3.00;2.80;;;;;;;;;;7330715;19;162412;-14
2022/01/27 15:30:29;;;;;;;3.33;2.97;;;;;;;;;;7330606;19;153941;-13
2022/01/27 15:33:01;;;;;;;2.45;2.25;;;;;;;;;;7328975;19;153549;-15
2022/01/27 15:35:33;;;;;;;2.85;2.60;;;;;;;;;;7330359;19;161925;-16
2022/01/27 15:38:04;;;;;;;2.88;2.28;;;;;;;;;;7327654;19;162373;-15
2022/01/27 15:40:38;;;;;;;3.63;2.70;;;;;;;;;;7330572;19;154074;-14
2022/01/27 15:43:13;;;;;;;3.38;2.63;;;;;;;;;;7329027;19;154136;-15
2022/01/27 15:45:44;;;;;;;2.65;2.45;;;;;;;;;;7329995;19;161856;-14
2022/01/27 15:48:16;;;;;;;2.95;2.75;;;;;;;;;;7329926;19;162603;-16
2022/01/27 15:50:47;;;;;;;3.83;2.15;;;;;;;;;;7330201;19;153946;-14
2022/01/27 15:53:19;;;;;;;3.67;2.38;;;;;;;;;;7328380;19;153689;-16
2022/01/27 15:55:50;;;;;;;3.00;2.72;;;;;;;;;;7329714;19;161760;-15
2022/01/27 15:58:24;;;;;;;3.10;2.58;;;;;;;;;;7329871;19;162374;-16
2022/01/27 16:00:56;;;;;;;2.88;2.25;;;;;;;;;;7329984;19;154098;-14
2022/01/27 16:03:27;;;;;;;3.00;2.30;;;;;;;;;;7329649;19;153655;-15
2022/01/27 16:05:59;;;;;;;3.75;2.53;;;;;;;;;;7329209;19;162026;-15
2022/01/27 16:08:31;;;;;;;3.88;2.60;;;;;;;;;;7328943;19;162383;-14
2022/01/27 16:11:02;;;;;;;2.55;2.25;;;;;;;;;;7329418;19;154092;-14
2022/01/27 16:13:36;;;;;;;2.85;2.55;;;;;;;;;;7327743;19;153389;-15
2022/01/27 16:16:08;;;;;;;3.28;2.67;;;;;;;;;;7329044;19;161783;-16
2022/01/27 16:18:39;;;;;;;3.23;2.93;;;;;;;;;;7328873;19;162396;-16
2022/01/27 16:21:10;;;;;;;2.78;2.45;;;;;;;;;;7329453;19;154041;-15
2022/01/27 16:23:42;;;;;;;2.38;2.10;;;;;;;;;;7327913;19;154210;-16
2022/01/27 16:26:14;;;;;;;2.25;2.05;;;;;;;;;;7328366;19;161792;-14
2022/01/27 16:28:47;;;;;;;2.58;2.30;;;;;;;;;;7328339;19;162690;-14
2022/01/27 16:31:19;;;;;;;2.70;2.20;;;;;;;;;;7328829;19;153953;-19
2022/01/27 16:33:50;;;;;;;2.25;2.00;;;;;;;;;;7326604;19;153520;-16
2022/01/27 16:36:21;;;;;;;3.47;2.67;;;;;;;;;;7326824;19;161989;-15
2022/01/27 16:38:53;;;;;;;4.25;2.78;;;;;;;;;;7325825;19;162455;-16
2022/01/27 16:41:25;;;;;;;2.97;2.40;;;;;;;;;;7328352;19;154171;-15
2022/01/27 16:43:59;;;;;;;2.83;2.63;;;;;;;;;;7328199;19;153821;-15
2022/01/27 16:46:32;;;;;;;2.83;2.35;;;;;;;;;;7327835;19;162618;-16
2022/01/27 16:49:03;;;;;;;2.50;2.30;;;;;;;;;;7328388;19;162342;-16
2022/01/27 16:51:34;;;;;;;2.47;1.98;;;;;;;;;;7334746;19;154111;-16
2022/01/27 16:54:07;;;;;;;2.60;2.10;;;;;;;;;;7333387;19;154422;-15
2022/01/27 16:56:38;;;;;;;3.03;2.33;;;;;;;;;;7335146;19;162050;-14
2022/01/27 16:59:12;;;;;;;3.17;2.28;;;;;;;;;;7334808;19;162314;-14
2022/01/27 17:01:44;;;;;;;2.80;2.05;;;;;;;;;;7335100;19;153975;-14
2022/01/27 17:04:22;;;;;;;4.30;2.13;;;;;;;;;;7334430;19;153638;-14
2022/01/27 17:06:53;;;;;;;2.63;2.10;;;;;;;;;;7333199;19;161863;-14
2022/01/27 17:09:24;;;;;;;2.72;2.22;;;;;;;;;;7334031;19;162579;-16
2022/01/27 17:11:56;;;;;;;2.22;2.10;;;;;;;;;;7334308;19;153719;-14
2022/01/27 17:14:29;;;;;;;2.80;2.15;;;;;;;;;;7332861;19;153278;-15
2022/01/27 17:17:02;;;;;;;3.30;2.40;;;;;;;;;;7333871;19;161852;-15
2022/01/27 17:19:35;;;;;;;2.45;2.25;;;;;;;;;;7333947;19;162584;-16
2022/01/27 17:22:11;;;;;;;2.28;2.13;;;;;;;;;;7333095;19;153977;-16
2022/01/27 17:24:46;;;;;;;2.47;1.98;;;;;;;;;;7334505;19;153709;-16
2022/01/27 17:27:17;;;;;;;3.22;2.60;;;;;;;;;;7334005;19;162065;-16
2022/01/27 17:29:51;;;;;;;4.97;2.40;;;;;;;;;;7332910;19;162583;-16
2022/01/27 17:32:22;;;;;;;2.25;2.10;;;;;;;;;;7334449;19;153955;-16
2022/01/27 17:34:54;;;;;;;2.72;2.30;;;;;;;;;;7332424;19;153541;-16
2022/01/27 17:37:26;;;;;;;2.85;2.15;;;;;;;;;;7333112;19;162178;-14
2022/01/27 17:39:57;;;;;;;2.25;2.05;;;;;;;;;;7333138;19;162625;-15
2022/01/27 17:42:29;;;;;;;2.17;1.90;;;;;;;;;;7333752;19;154064;-15
2022/01/27 17:45:02;;;;;;;2.10;2.00;;;;;;;;;;7333725;19;153747;-14
2022/01/27 17:47:34;;;;;;;2.53;2.30;;;;;;;;;;7333455;19;162060;-14
2022/01/27 17:50:06;;;;;;;2.47;2.28;;;;;;;;;;7333125;19;162712;-15
2022/01/27 17:52:38;;;;;;;2.60;1.87;;;;;;;;;;7333444;19;153982;-15
2022/01/27 17:55:11;;;;;;;2.20;2.00;;;;;;;;;;7331290;19;153502;-15
2022/01/27 17:57:42;;;;;;;2.43;2.20;;;;;;;;;;7332354;19;162154;-14
2022/01/27 18:00:17;;;;;;;2.33;2.13;;;;;;;;;;7331680;19;162370;-15
2022/01/27 18:02:48;;;;;;;2.83;2.30;;;;;;;;;;7333213;19;153926;-17
2022/01/27 18:05:20;;;;;;;2.88;2.28;;;;;;;;;;7333544;19;153568;-15
2022/01/27 18:07:54;;;;;;;2.30;2.10;;;;;;;;;;7332704;19;161877;-14
2022/01/27 18:10:26;;;;;;;2.22;2.10;;;;;;;;;;7332571;19;162429;-14
2022/01/27 18:12:57;;;;;;;2.37;1.87;;;;;;;;;;7332594;19;153963;-15
2022/01/27 18:15:31;;;;;;;2.47;1.90;;;;;;;;;;7330503;19;153701;-14
2022/01/27 18:18:02;;;;;;;3.65;2.10;;;;;;;;;;7332582;19;161834;-15
2022/01/27 18:20:33;;;;;;;3.00;1.95;;;;;;;;;;7332698;19;162413;-15
2022/01/27 18:23:05;;;;;;;1.98;1.80;;;;;;;;;;7333084;19;153976;-15
2022/01/27 18:25:37;;;;;;;2.55;2.13;;;;;;;;;;7332828;19;153661;-16
2022/01/27 18:28:08;;;;;;;2.05;1.88;;;;;;;;;;7332206;19;161887;-16
2022/01/27 18:30:42;;;;;;;3.45;2.05;;;;;;;;;;7332214;19;162712;-15
2022/01/27 18:33:13;;;;;;;2.55;2.35;;;;;;;;;;7332706;19;154283;-15
2022/01/27 18:35:44;;;;;;;2.20;1.95;;;;;;;;;;7330499;19;153720;-15
2022/01/27 18:38:16;;;;;;;2.75;2.13;;;;;;;;;;7330925;19;162159;-16
2022/01/27 18:40:47;;;;;;;1.95;1.80;;;;;;;;;;7330987;19;162545;-16
2022/01/27 18:43:19;;;;;;;2.25;2.08;;;;;;;;;;7332259;19;154097;-15
2022/01/27 18:45:53;;;;;;;3.15;1.95;;;;;;;;;;7332335;19;153524;-15
2022/01/27 18:48:31;;;;;;;2.05;1.90;;;;;;;;;;7331436;19;162040;-15
2022/01/27 18:51:05;;;;;;;1.77;1.67;;;;;;;;;;7331832;19;162493;-15
2022/01/27 18:53:37;;;;;;;2.63;1.85;;;;;;;;;;7330997;19;154551;-14
2022/01/27 18:56:09;;;;;;;1.80;1.70;;;;;;;;;;7329787;19;153550;-14
2022/01/27 18:58:40;;;;;;;2.53;2.08;;;;;;;;;;7331670;19;161817;-14
2022/01/27 19:01:14;;;;;;;3.22;1.77;;;;;;;;;;7331667;19;162757;-14
2022/01/27 19:03:46;;;;;;;2.08;1.80;;;;;;;;;;7331974;19;154090;-15
2022/01/27 19:06:17;;;;;;;1.88;1.75;;;;;;;;;;7332076;19;153725;-16
2022/01/27 19:08:49;;;;;;;1.83;1.73;;;;;;;;;;7331811;19;161835;-15
2022/01/27 19:11:20;;;;;;;2.05;1.88;;;;;;;;;;7330663;19;162488;-16
2022/01/27 19:13:52;;;;;;;2.33;2.05;;;;;;;;;;7330349;19;153943;-15
2022/01/27 19:16:25;;;;;;;1.73;1.63;;;;;;;;;;7328056;19;153560;-16
2022/01/27 19:18:57;;;;;;;1.67;1.58;;;;;;;;;;7331025;19;162346;-14
2022/01/27 19:21:28;;;;;;;3.38;2.10;;;;;;;;;;7330863;19;162535;-15
2022/01/27 19:24:03;;;;;;;1.92;1.83;;;;;;;;;;7331354;19;154341;-15
2022/01/27 19:26:56;;;;;;;1.63;1.52;;;;;;;;;;7330545;19;153603;-16
2022/01/27 19:29:33;;;;;;;2.20;2.00;;;;;;;;;;7326220;19;161843;-16
2022/01/27 19:32:11;;;;;;;1.70;1.60;;;;;;;;;;7330830;19;162395;-15
2022/01/27 19:34:42;;;;;;;3.22;1.75;;;;;;;;;;7333472;19;153810;-16
2022/01/27 19:37:14;;;;;;;1.75;1.65;;;;;;;;;;7334658;19;153575;-15
2022/01/27 19:39:46;;;;;;;2.00;1.80;;;;;;;;;;7333577;19;161856;-16
2022/01/27 19:42:17;;;;;;;2.45;1.88;;;;;;;;;;7333518;19;162323;-15
2022/01/27 19:44:58;;;;;;;2.55;1.80;;;;;;;;;;7334319;19;154292;-15
2022/01/27 19:47:39;;;;;;;2.22;2.03;;;;;;;;;;7333902;19;153630;-16
2022/01/27 19:50:16;;;;;;;2.78;1.90;;;;;;;;;;7334763;19;161882;-15
2022/01/27 19:52:55;;;;;;;2.08;1.80;;;;;;;;;;7332010;19;161984;-15
2022/01/27 19:55:27;;;;;;;3.85;1.85;;;;;;;;;;7332573;19;153787;-16
2022/01/27 19:57:59;;;;;;;4.00;1.70;;;;;;;;;;7331576;19;155469;-16
2022/01/27 20:00:31;;;;;;;1.88;1.77;;;;;;;;;;7329993;19;161672;-14
2022/01/27 20:03:06;;;;;;;1.65;1.55;;;;;;;;;;7329660;19;162630;-14
2022/01/27 20:05:38;;;;;;;2.00;1.75;;;;;;;;;;7333722;19;154124;-14
2022/01/27 20:08:10;;;;;;;3.63;1.88;;;;;;;;;;7329808;19;154271;-15
2022/01/27 20:10:41;;;;;;;5.65;2.10;;;;;;;;;;7329557;19;161756;-16
2022/01/27 20:13:13;;;;;;;9.02;2.25;;;;;;;;;;7332922;19;162468;-15
2022/01/27 20:15:44;;;;;;;2.00;1.85;;;;;;;;;;7332008;19;154048;-14
2022/01/27 20:18:20;;;;;;;4.55;2.20;;;;;;;;;;7334386;19;153523;-16
2022/01/27 20:20:53;;;;;;;4.20;2.40;;;;;;;;;;7329549;19;161978;-15
2022/01/27 20:23:26;;;;;;;2.67;1.95;;;;;;;;;;7328856;19;162702;-16
2022/01/27 20:25:59;;;;;;;2.70;1.77;;;;;;;;;;7329640;19;153960;-15
2022/01/27 20:28:31;;;;;;;3.00;1.73;;;;;;;;;;7329322;19;153544;-14
2022/01/27 20:31:03;;;;;;;1.50;1.40;;;;;;;;;;7328861;19;161766;-16
2022/01/27 20:33:38;;;;;;;1.60;1.50;;;;;;;;;;7328771;19;162380;-15
2022/01/27 20:36:09;;;;;;;2.38;1.42;;;;;;;;;;7328058;19;154175;-16
2022/01/27 20:38:44;;;;;;;1.42;1.33;;;;;;;;;;7329283;19;153816;-16
2022/01/27 20:41:18;;;;;;;2.17;1.50;;;;;;;;;;7331789;19;161822;-14
2022/01/27 20:43:49;;;;;;;1.75;1.65;;;;;;;;;;7332104;19;162409;-15
2022/01/27 20:46:22;;;;;;;2.92;1.58;;;;;;;;;;7330946;19;154117;-15
2022/01/27 20:49:01;;;;;;;2.00;1.50;;;;;;;;;;7327748;19;153584;-13
2022/01/27 20:51:32;;;;;;;1.40;1.30;;;;;;;;;;7330989;19;161834;-13
2022/01/27 20:54:03;;;;;;;1.85;1.65;;;;;;;;;;7328511;19;162518;-14
2022/01/27 20:56:35;;;;;;;1.92;1.40;;;;;;;;;;7325869;19;154035;-15
2022/01/27 20:59:06;;;;;;;1.60;1.50;;;;;;;;;;7328426;19;153662;-15
2022/01/27 21:01:49;;;;;;;1.92;1.67;;;;;;;;;;7326862;19;161814;-16
2022/01/27 21:04:23;;;;;;;3.20;1.40;;;;;;;;;;7329535;19;162586;-14
2022/01/27 21:06:57;;;;;;;2.28;1.42;;;;;;;;;;7327033;19;154239;-15
2022/01/27 21:09:30;;;;;;;3.60;1.50;;;;;;;;;;7329522;19;153587;-14
2022/01/27 21:12:03;;;;;;;2.67;1.58;;;;;;;;;;7330945;19;162113;-16
2022/01/27 21:14:36;;;;;;;6.57;1.77;;;;;;;;;;7330642;19;163383;-15
2022/01/27 21:17:07;;;;;;;3.67;2.00;;;;;;;;;;7329124;19;153750;-15
2022/01/27 21:19:41;;;;;;;2.17;1.42;;;;;;;;;;7330505;19;153490;-15
2022/01/27 21:22:12;;;;;;;3.25;1.50;;;;;;;;;;7330449;19;161925;-15
2022/01/27 21:24:44;;;;;;;2.05;1.48;;;;;;;;;;7330347;19;162665;-14
2022/01/27 21:27:15;;;;;;;1.50;1.40;;;;;;;;;;7330781;19;154195;-15
2022/01/27 21:29:48;;;;;;;2.90;1.65;;;;;;;;;;7329233;19;153589;-15
2022/01/27 21:32:20;;;;;;;2.33;1.80;;;;;;;;;;7330348;19;161951;-14
2022/01/27 21:34:59;;;;;;;1.58;1.48;;;;;;;;;;7329906;19;162482;-15
2022/01/27 21:37:30;;;;;;;3.28;1.58;;;;;;;;;;7336179;19;154019;-14
2022/01/27 21:40:04;;;;;;;4.07;1.75;;;;;;;;;;7337262;19;153469;-18
2022/01/27 21:42:36;;;;;;;3.60;1.70;;;;;;;;;;7331105;19;161677;-14
2022/01/27 21:45:09;;;;;;;2.75;1.98;;;;;;;;;;7335543;19;162554;-14
2022/01/27 21:47:40;;;;;;;;;;;;;;;;;;7335732;19;154165;-15
2022/01/27 21:50:16;;;;;;;2.33;1.80;;;;;;;;;;7333419;19;155212;-17
2022/01/27 21:52:48;;;;;;;1.65;1.55;;;;;;;;;;7335428;19;161961;-14
2022/01/27 21:55:20;;;;;;;1.48;1.40;;;;;;;;;;7336092;19;162570;-15
2022/01/27 21:57:53;;;;;;;3.28;1.88;;;;;;;;;;7335453;19;154086;-14
2022/01/27 22:00:27;;;;;;;4.07;1.85;;;;;;;;;;7336613;19;153528;-14
2022/01/27 22:02:59;;;;;;;2.05;1.85;;;;;;;;;;7335243;19;161807;-13
2022/01/27 22:05:33;;;;;;;1.90;1.80;;;;;;;;;;7335808;19;162739;-15
2022/01/27 22:08:06;;;;;;;2.50;1.80;;;;;;;;;;7336351;19;154052;-15
2022/01/27 22:10:37;;;;;;;6.18;1.77;;;;;;;;;;7336187;19;153540;-14
2022/01/27 22:13:09;;;;;;;1.58;1.48;;;;;;;;;;7334748;19;162031;-15
2022/01/27 22:15:40;;;;;;;2.50;2.13;;;;;;;;;;7334056;19;162371;-14
2022/01/27 22:18:12;;;;;;;3.08;2.30;;;;;;;;;;7334431;19;154116;-15
2022/01/27 22:20:46;;;;;;;2.88;2.58;;;;;;;;;;7336293;19;153581;-14
2022/01/27 22:23:17;;;;;;;3.00;1.60;;;;;;;;;;7334811;19;161750;-14
2022/01/27 22:25:48;;;;;;;1.98;1.88;;;;;;;;;;7335369;19;162483;-15
2022/01/27 22:28:19;;;;;;;1.95;1.77;;;;;;;;;;7334525;19;154096;-14
2022/01/27 22:30:51;;;;;;;2.88;2.33;;;;;;;;;;7335590;19;153592;-14
2022/01/27 22:33:22;;;;;;;2.00;1.80;;;;;;;;;;7335406;19;162212;-15
2022/01/27 22:35:56;;;;;;;1.80;1.70;;;;;;;;;;7335335;19;162406;-14
2022/01/27 22:38:28;;;;;;;2.25;1.60;;;;;;;;;;7333896;19;153997;-15
2022/01/27 22:40:59;;;;;;;1.83;1.70;;;;;;;;;;7334344;19;153567;-14
2022/01/27 22:43:32;;;;;;;2.30;1.50;;;;;;;;;;7335146;19;161797;-16
2022/01/27 22:46:03;;;;;;;2.22;1.50;;;;;;;;;;7334049;19;162549;-15
2022/01/27 22:48:35;;;;;;;1.55;1.45;;;;;;;;;;7334710;19;153941;-14
2022/01/27 22:51:10;;;;;;;1.80;1.70;;;;;;;;;;7331261;19;153556;-15
2022/01/27 22:53:41;;;;;;;2.10;1.80;;;;;;;;;;7331972;19;161844;-15
2022/01/27 22:56:13;;;;;;;2.90;2.25;;;;;;;;;;7331785;19;162698;-16
2022/01/27 22:58:44;;;;;;;3.47;2.20;;;;;;;;;;7329768;19;154235;-15
2022/01/27 23:01:16;;;;;;;2.55;2.20;;;;;;;;;;7331785;19;153683;-14
2022/01/27 23:03:47;;;;;;;3.72;2.25;;;;;;;;;;7331610;19;161984;-15
2022/01/27 23:06:21;;;;;;;1.85;1.75;;;;;;;;;;7331488;19;162605;-16
2022/01/27 23:08:52;;;;;;;3.03;1.65;;;;;;;;;;7331628;19;154064;-14
2022/01/27 23:11:25;;;;;;;1.65;1.55;;;;;;;;;;7331691;19;154225;-15
2022/01/27 23:14:04;;;;;;;;;;;;;;;;;;7330518;19;161871;-15
2022/01/27 23:16:49;;;;;;;4.03;2.00;;;;;;;;;;7329928;19;162617;-18
2022/01/27 23:19:22;;;;;;;1.90;1.80;;;;;;;;;;7330105;19;154439;-15
2022/01/27 23:22:13;;;;;;;3.05;1.77;;;;;;;;;;7330030;19;153557;-15
2022/01/27 23:24:45;;;;;;;1.73;1.60;;;;;;;;;;7330781;19;162074;-15
2022/01/27 23:27:17;;;;;;;11.75;2.22;;;;;;;;;;7331103;19;162362;-16
2022/01/27 23:29:51;;;;;;;6.10;4.93;;;;;;;;;;7332876;19;153967;-15
2022/01/27 23:32:23;;;;;;;10.95;5.90;;;;;;;;;;7328892;19;153564;-15
